Time;durP1;ratioP1;P1;durP2;ratioP2;P2;SDS_P1;SDS_P2;PMS_P1;PMS_P2;Temp;Humidity;BMP_temperature;BMP_pressure;BME280_temperature;BME280_humidity;BME280_pressure;Samples;Min_cycle;Max_cycle;Signal;HPM_P1;HPM_P2
2021/04/10 00:01:33;;;;;;;39.13;20.10;;;;;;;1.56;63.08;101213.09;5047946;28;20855;-23
2021/04/10 00:03:59;;;;;;;25.83;13.75;;;;;;;1.77;62.33;101193.78;5047975;28;20863;-23
2021/04/10 00:06:25;;;;;;;18.33;10.18;;;;;;;1.57;62.82;101192.88;5047601;28;20029;-23
2021/04/10 00:08:50;;;;;;;26.42;14.52;;;;;;;1.42;62.64;101205.56;5029880;28;20052;-23
2021/04/10 00:11:16;;;;;;;40.80;20.98;;;;;;;1.60;62.28;101205.78;5047597;28;20028;-23
2021/04/10 00:13:41;;;;;;;20.60;10.50;;;;;;;1.41;63.96;101203.91;5047845;28;20033;-23
2021/04/10 00:16:07;;;;;;;11.38;6.55;;;;;;;1.23;64.82;101194.94;5047304;28;20025;-23
2021/04/10 00:18:32;;;;;;;10.32;5.47;;;;;;;0.80;65.70;101168.69;5047942;28;20029;-20
2021/04/10 00:20:58;;;;;;;9.18;5.43;;;;;;;1.23;65.00;101173.91;5047894;28;20148;-23
2021/04/10 00:26:45;;;;;;;8.45;5.30;;;;;;;2.57;61.18;101197.22;5047979;28;20511;-22
2021/04/10 00:29:11;;;;;;;9.68;5.40;;;;;;;2.67;60.23;101202.50;5047676;28;20036;-23
2021/04/10 00:31:36;;;;;;;8.80;5.18;;;;;;;2.61;59.70;101193.34;5047239;28;20480;-22
2021/04/10 00:34:02;;;;;;;10.32;6.32;;;;;;;3.05;57.67;101191.09;5047509;28;20490;-23
2021/04/10 00:36:27;;;;;;;9.57;5.45;;;;;;;2.36;60.18;101195.56;5029072;28;20060;-23
2021/04/10 00:38:53;;;;;;;10.88;6.60;;;;;;;2.16;61.43;101188.63;5047407;28;20021;-22
2021/04/10 00:41:18;;;;;;;12.02;7.35;;;;;;;1.95;62.08;101201.88;5047139;28;20028;-22
2021/04/10 00:43:44;;;;;;;14.35;8.13;;;;;;;1.32;63.01;101171.34;5047185;28;20449;-22
2021/04/10 00:46:09;;;;;;;12.15;8.18;;;;;;;2.03;62.39;101191.50;5047103;28;20978;-22
2021/04/10 00:48:35;;;;;;;13.95;8.55;;;;;;;2.15;61.59;101186.97;5047261;28;20927;-22
2021/04/10 00:51:01;;;;;;;12.95;7.93;;;;;;;1.99;61.18;101156.72;5046754;28;20088;-23
2021/04/10 00:53:26;;;;;;;14.45;8.57;;;;;;;1.89;62.17;101161.16;5047190;28;20021;-23
2021/04/10 00:55:53;;;;;;;11.43;8.20;;;;;;;1.64;64.22;101198.47;5046993;28;20025;-23
2021/04/10 00:58:19;;;;;;;13.98;8.52;;;;;;;1.98;62.98;101197.19;5046622;28;20024;-22
2021/04/10 01:00:45;;;;;;;12.95;8.30;;;;;;;2.50;60.95;101185.59;5029360;28;20037;-22
2021/04/10 01:03:10;;;;;;;13.48;8.95;;;;;;;2.47;61.22;101188.50;5033489;28;20522;-21
2021/04/10 01:05:36;;;;;;;15.73;9.20;;;;;;;3.03;59.04;101187.75;5036088;28;20037;-22
2021/04/10 01:08:02;;;;;;;14.68;8.60;;;;;;;2.49;61.13;101178.66;5035852;28;20039;-23
2021/04/10 01:10:28;;;;;;;14.43;9.70;;;;;;;2.74;60.18;101175.47;5053247;28;20033;-23
2021/04/10 01:13:23;;;;;;;16.58;10.48;;;;;;;2.73;60.15;101197.50;5035818;28;20025;-23
2021/04/10 01:15:55;;;;;;;17.55;10.02;;;;;;;2.49;60.74;101190.00;5035614;28;20066;-22
2021/04/10 01:18:49;;;;;;;17.83;11.02;;;;;;;2.31;61.58;101194.31;5019201;28;20458;-23
2021/04/10 01:21:42;;;;;;;19.70;11.63;;;;;;;2.60;60.05;101189.06;5026615;28;20498;-23
2021/04/10 01:24:29;;;;;;;21.88;12.65;;;;;;;3.20;58.48;101194.91;5008204;28;20044;-22
2021/04/10 01:27:04;;;;;;;21.20;13.17;;;;;;;2.58;61.16;101194.47;5053446;28;20477;-23
2021/04/10 01:29:31;;;;;;;20.70;11.75;;;;;;;2.53;61.14;101190.56;5035574;28;20267;-22
2021/04/10 01:31:56;;;;;;;25.05;13.15;;;;;;;2.00;62.84;101187.34;5019265;28;20063;-22
2021/04/10 01:34:47;;;;;;;25.48;13.35;;;;;;;2.06;63.49;101198.28;5053072;28;20068;-22
2021/04/10 01:37:18;;;;;;;20.63;10.95;;;;;;;2.35;61.82;101199.19;5053504;28;20028;-22
2021/04/10 01:39:44;;;;;;;19.77;10.88;;;;;;;2.88;59.80;101184.75;5019875;28;20039;-22
2021/04/10 01:42:10;;;;;;;19.80;11.88;;;;;;;2.48;61.21;101192.81;5035548;28;20847;-23
2021/04/10 01:44:36;;;;;;;20.63;12.55;;;;;;;2.28;61.16;101165.63;5035375;28;20032;-23
2021/04/10 01:47:01;;;;;;;20.33;13.35;;;;;;;2.77;60.70;101188.34;5018960;28;20083;-22
2021/04/10 01:49:27;;;;;;;23.58;13.85;;;;;;;2.26;61.64;101184.19;5053448;28;20475;-22
2021/04/10 01:51:53;;;;;;;21.33;13.10;;;;;;;2.41;60.96;101166.19;5018841;28;20025;-22
2021/04/10 01:54:18;;;;;;;21.67;13.52;;;;;;;2.72;59.83;101174.78;5019001;28;20120;-22
2021/04/10 01:56:44;;;;;;;21.80;13.68;;;;;;;2.24;61.81;101164.25;5018781;28;20057;-22
2021/04/10 01:59:12;;;;;;;22.52;13.45;;;;;;;2.52;60.78;101160.78;5018955;28;20134;-21
2021/04/10 02:01:37;;;;;;;26.27;14.15;;;;;;;2.90;59.79;101174.91;5035434;28;20040;-23
2021/04/10 02:04:04;;;;;;;28.13;15.05;;;;;;;2.54;61.32;101163.28;5019425;28;20041;-22
2021/04/10 02:06:30;;;;;;;27.70;15.45;;;;;;;2.88;59.55;101157.56;5019101;28;20039;-22
2021/04/10 02:08:55;;;;;;;26.35;14.35;;;;;;;2.83;59.44;101179.06;5018865;28;20382;-22
2021/04/10 02:11:21;;;;;;;24.02;13.60;;;;;;;2.26;60.05;101173.66;5018504;28;20405;-22
2021/04/10 02:13:47;;;;;;;19.77;12.65;;;;;;;2.45;60.28;101182.53;5016752;28;20029;-23
2021/04/10 02:16:12;;;;;;;19.92;12.48;;;;;;;2.11;60.90;101175.06;5031704;28;20024;-23
2021/04/10 02:18:38;;;;;;;16.08;10.02;;;;;;;2.55;59.61;101186.00;5049960;28;20036;-22
2021/04/10 02:21:08;;;;;;;17.35;10.30;;;;;;;2.11;60.95;101175.06;5032115;28;20060;-22
2021/04/10 02:23:42;;;;;;;15.88;9.80;;;;;;;1.78;61.36;101166.53;5049816;28;20044;-23
2021/04/10 02:26:08;;;;;;;17.50;9.73;;;;;;;1.54;62.57;101186.09;5031531;28;20044;-22
2021/04/10 02:28:34;;;;;;;17.27;9.50;;;;;;;1.74;61.57;101188.81;5032161;28;20037;-21
2021/04/10 02:31:01;;;;;;;14.43;9.43;;;;;;;1.67;62.58;101192.91;5049879;28;20390;-22
2021/04/10 02:33:38;;;;;;;17.25;9.50;;;;;;;1.82;61.55;101191.59;5049798;28;20090;-23
2021/04/10 02:36:04;;;;;;;14.13;8.80;;;;;;;1.60;62.32;101188.19;5016853;28;20041;-23
2021/04/10 02:38:31;;;;;;;17.75;9.07;;;;;;;1.05;64.07;101187.66;5031575;28;20041;-23
2021/04/10 02:41:16;;;;;;;15.45;8.73;;;;;;;0.97;64.67;101190.91;5031642;28;20615;-23
2021/04/10 02:43:44;;;;;;;16.85;9.18;;;;;;;1.41;63.16;101182.88;5049368;28;20029;-23
2021/04/10 02:46:10;;;;;;;17.67;9.63;;;;;;;1.59;62.40;101181.28;5015182;28;20040;-22
2021/04/10 02:49:06;;;;;;;25.05;10.70;;;;;;;2.39;59.73;101194.44;5015006;28;20032;-22
2021/04/10 02:51:35;;;;;;;22.27;10.48;;;;;;;2.34;58.56;101179.06;5035918;28;20051;-23
2021/04/10 02:54:02;;;;;;;32.60;15.98;;;;;;;2.42;58.56;101173.94;5031470;28;20068;-22
2021/04/10 02:56:28;;;;;;;33.08;15.68;;;;;;;2.49;58.58;101191.81;4998454;28;20037;-23
2021/04/10 02:58:54;;;;;;;20.13;11.32;;;;;;;2.37;58.85;101164.78;5031200;28;20033;-23
2021/04/10 03:01:19;;;;;;;20.02;10.57;;;;;;;2.79;58.10;101181.13;5049097;28;20039;-23
2021/04/10 03:03:46;;;;;;;19.23;10.57;;;;;;;2.61;58.61;101194.16;5031116;28;20087;-22
2021/04/10 03:06:11;;;;;;;22.73;11.60;;;;;;;2.06;60.03;101193.84;5014761;28;20032;-20
2021/04/10 03:08:37;;;;;;;24.80;13.07;;;;;;;2.28;59.68;101197.22;5015068;28;20028;-23
2021/04/10 03:11:02;;;;;;;27.73;13.88;;;;;;;2.20;59.88;101198.72;5014549;28;20025;-23
2021/04/10 03:13:28;;;;;;;25.35;13.55;;;;;;;2.13;59.95;101195.00;5030943;28;20108;-23
2021/04/10 03:15:54;;;;;;;24.92;13.55;;;;;;;2.20;59.31;101172.41;5048982;28;20110;-22
2021/04/10 03:18:20;;;;;;;24.40;12.43;;;;;;;2.84;58.51;101195.69;5030698;28;20029;-23
2021/04/10 03:20:46;;;;;;;23.17;12.40;;;;;;;2.38;58.21;101188.34;5048707;28;20037;-23
2021/04/10 03:23:11;;;;;;;22.25;14.07;;;;;;;2.36;58.94;101185.03;5031030;28;20047;-22
2021/04/10 03:25:37;;;;;;;23.08;15.35;;;;;;;2.28;58.96;101203.31;5014276;28;20118;-21
2021/04/10 03:28:04;;;;;;;23.10;14.20;;;;;;;1.69;61.14;101212.03;5048722;28;20086;-22
2021/04/10 03:30:29;;;;;;;24.67;14.15;;;;;;;1.22;63.30;101194.09;5030472;28;20028;-23
2021/04/10 03:32:55;;;;;;;26.20;13.02;;;;;;;1.76;61.95;101215.81;5030715;28;20036;-23
2021/04/10 03:35:26;;;;;;;26.33;13.50;;;;;;;1.24;62.61;101196.59;5030497;28;20039;-23
2021/04/10 03:37:52;;;;;;;21.02;12.48;;;;;;;1.86;61.17;101197.41;5048449;28;20029;-21
2021/04/10 03:40:18;;;;;;;22.65;12.80;;;;;;;2.38;60.11;101203.34;5030791;28;20107;-22
2021/04/10 03:42:44;;;;;;;29.48;14.75;;;;;;;2.34;60.22;101202.75;5030506;28;20062;-23
2021/04/10 03:45:17;;;;;;;17.15;13.50;;;;;;;2.49;58.57;101210.25;5030322;28;20029;-23
2021/04/10 03:47:43;;;;;;;20.23;13.38;;;;;;;2.16;59.71;101204.41;5048525;28;20489;-23
2021/04/10 03:50:09;;;;;;;24.13;14.00;;;;;;;2.21;59.70;101207.47;5029814;28;20060;-23
2021/04/10 03:52:35;;;;;;;26.52;15.20;;;;;;;2.05;58.80;101215.06;5046755;28;20025;-22
2021/04/10 03:55:01;;;;;;;29.80;17.10;;;;;;;1.95;59.46;101229.00;5047310;28;20419;-21
2021/04/10 03:57:27;;;;;;;26.40;13.18;;;;;;;1.73;60.35;101234.47;5048163;28;20423;-21
2021/04/10 03:59:53;;;;;;;19.60;11.98;;;;;;;1.70;60.84;101226.84;5030302;28;20029;-23
2021/04/10 04:02:18;;;;;;;18.98;10.93;;;;;;;2.03;59.24;101235.41;5047600;28;20029;-22
2021/04/10 04:04:44;;;;;;;18.27;10.52;;;;;;;1.71;60.84;101236.41;5047915;28;20462;-23
2021/04/10 04:07:09;;;;;;;18.23;10.80;;;;;;;1.34;61.75;101224.59;5047774;28;20104;-22
2021/04/10 04:09:36;;;;;;;18.23;11.05;;;;;;;1.63;60.52;101212.56;5047793;28;20574;-23
2021/04/10 04:12:03;;;;;;;18.73;12.07;;;;;;;1.87;59.88;101201.72;5047634;28;20025;-23
2021/04/10 04:14:28;;;;;;;16.83;11.18;;;;;;;1.69;60.75;101227.81;5047496;28;20147;-23
2021/04/10 04:16:54;;;;;;;21.30;11.65;;;;;;;1.46;62.16;101228.00;5047541;28;20047;-22
2021/04/10 04:19:20;;;;;;;19.67;11.77;;;;;;;2.29;59.49;101228.69;5048206;28;20032;-22
2021/04/10 04:21:45;;;;;;;18.58;11.73;;;;;;;2.32;58.70;101225.75;5047635;28;20035;-23
2021/04/10 04:24:11;;;;;;;26.77;13.63;;;;;;;2.44;59.91;101229.09;5047137;28;20549;-23
2021/04/10 04:26:36;;;;;;;30.98;14.25;;;;;;;1.58;62.37;101226.94;5047316;28;20040;-23
2021/04/10 04:29:02;;;;;;;22.08;13.82;;;;;;;1.83;62.15;101235.34;5047623;28;20028;-23
2021/04/10 04:31:28;;;;;;;25.05;13.10;;;;;;;1.58;62.85;101244.53;5047042;28;20444;-23
2021/04/10 04:33:53;;;;;;;22.45;12.85;;;;;;;1.75;62.27;101238.63;5047128;28;20021;-23
2021/04/10 04:36:19;;;;;;;28.13;16.77;;;;;;;1.98;62.08;101238.41;5047202;28;20032;-21
2021/04/10 04:38:44;;;;;;;28.90;17.67;;;;;;;1.68;62.42;101245.38;5047080;28;20483;-23
2021/04/10 04:41:10;;;;;;;53.47;28.30;;;;;;;1.72;63.04;101249.44;5047034;28;20782;-23
2021/04/10 04:43:35;;;;;;;30.25;19.63;;;;;;;2.06;62.00;101251.75;5047414;28;20036;-23
2021/04/10 04:46:01;;;;;;;29.50;18.02;;;;;;;1.98;62.00;101246.31;5047077;28;20116;-23
2021/04/10 04:48:26;;;;;;;35.13;20.88;;;;;;;2.08;61.99;101264.78;5046822;28;20115;-23
2021/04/10 04:50:52;;;;;;;23.63;16.05;;;;;;;2.15;61.92;101255.38;5046774;28;20063;-23
2021/04/10 04:53:18;;;;;;;27.67;17.52;;;;;;;2.22;61.44;101238.06;5047385;28;20037;-21
2021/04/10 04:55:43;;;;;;;31.92;22.42;;;;;;;2.40;61.78;101260.13;5047191;28;20040;-22
2021/04/10 04:58:09;;;;;;;19.45;13.27;;;;;;;2.34;61.13;101225.63;5047026;28;20029;-23
2021/04/10 05:00:34;;;;;;;17.48;10.50;;;;;;;2.22;61.89;101262.59;5047177;28;20063;-22
2021/04/10 05:03:00;;;;;;;14.32;8.95;;;;;;;1.68;63.98;101265.59;5046922;28;20036;-23
2021/04/10 05:05:25;;;;;;;14.50;9.65;;;;;;;2.21;62.73;101265.38;5046973;28;20032;-23
2021/04/10 05:07:51;;;;;;;16.05;8.63;;;;;;;3.29;59.48;101253.03;5047143;28;20510;-22
2021/04/10 05:10:16;;;;;;;14.55;9.38;;;;;;;3.22;59.49;101248.34;5046941;28;20025;-22
2021/04/10 05:12:42;;;;;;;16.25;8.93;;;;;;;3.20;59.79;101242.38;5047186;28;20112;-21
2021/04/10 05:15:08;;;;;;;12.68;8.50;;;;;;;3.85;58.15;101268.00;5047301;28;20083;-23
2021/04/10 05:17:34;;;;;;;16.02;10.30;;;;;;;3.84;57.53;101274.25;5046903;28;20048;-23
2021/04/10 05:19:59;;;;;;;17.27;10.40;;;;;;;3.76;58.07;101268.88;5047112;28;20048;-23
2021/04/10 05:22:25;;;;;;;18.55;11.45;;;;;;;4.35;56.26;101266.78;5046618;28;20036;-23
2021/04/10 05:24:50;;;;;;;20.23;12.27;;;;;;;4.52;55.33;101262.50;5046693;28;20073;-22
2021/04/10 05:27:16;;;;;;;21.17;12.93;;;;;;;4.70;54.70;101257.22;5046776;28;20116;-22
2021/04/10 05:29:41;;;;;;;23.63;13.07;;;;;;;4.29;57.40;101276.16;5046959;28;20108;-21
2021/04/10 05:32:07;;;;;;;18.77;11.48;;;;;;;3.84;59.97;101250.50;5046687;28;20052;-22
2021/04/10 05:34:32;;;;;;;20.55;13.13;;;;;;;4.21;58.36;101258.38;5046821;28;20071;-23
2021/04/10 05:36:58;;;;;;;21.77;13.55;;;;;;;4.36;56.39;101253.44;5046809;28;20411;-23
2021/04/10 05:39:23;;;;;;;23.00;14.55;;;;;;;4.77;56.49;101266.22;5046815;28;20028;-23
2021/04/10 05:41:49;;;;;;;22.45;14.75;;;;;;;4.74;55.44;101242.72;5046351;28;20037;-23
2021/04/10 05:44:14;;;;;;;23.27;13.82;;;;;;;4.80;56.36;101255.31;5028735;28;20033;-22
2021/04/10 05:46:40;;;;;;;23.17;15.18;;;;;;;5.32;54.86;101265.16;5046661;28;20138;-22
2021/04/10 05:49:06;;;;;;;22.08;13.68;;;;;;;5.49;55.49;101253.69;5047233;28;20063;-22
2021/04/10 05:51:31;;;;;;;21.52;14.18;;;;;;;6.02;53.27;101271.19;5050357;28;20354;-23
2021/04/10 05:53:57;;;;;;;21.15;12.07;;;;;;;5.97;53.22;101262.91;5050289;28;20032;-22
2021/04/10 05:56:22;;;;;;;20.85;12.73;;;;;;;6.02;52.64;101250.00;5049876;28;20118;-22
2021/04/10 05:58:48;;;;;;;20.85;13.00;;;;;;;5.86;53.21;101243.78;5050201;28;20401;-23
2021/04/10 06:01:13;;;;;;;18.45;12.95;;;;;;;6.45;53.45;101260.56;5050126;28;20025;-22
2021/04/10 06:03:39;;;;;;;106.57;45.33;;;;;;;6.39;54.36;101266.50;5050303;28;20065;-22
2021/04/10 06:06:05;;;;;;;23.17;14.02;;;;;;;6.53;52.39;101263.22;5050407;28;20029;-21
2021/04/10 06:08:31;;;;;;;20.65;13.00;;;;;;;6.72;51.67;101266.56;5050086;28;20536;-22
2021/04/10 06:10:56;;;;;;;21.98;14.40;;;;;;;7.07;51.21;101251.34;5049818;28;20036;-22
2021/04/10 06:13:22;;;;;;;27.33;14.15;;;;;;;7.08;50.12;101256.47;5050002;28;20060;-23
2021/04/10 06:15:47;;;;;;;25.75;14.55;;;;;;;6.74;51.26;101254.84;5049680;28;20119;-23
2021/04/10 06:18:13;;;;;;;26.05;15.07;;;;;;;6.50;51.68;101268.03;5049686;28;20033;-22
2021/04/10 06:20:38;;;;;;;23.70;14.80;;;;;;;6.95;51.38;101245.56;5049827;28;20029;-22
2021/04/10 06:23:04;;;;;;;24.83;12.55;;;;;;;6.93;50.38;101250.22;5049756;28;20029;-21
2021/04/10 06:25:30;;;;;;;21.95;12.40;;;;;;;6.76;51.08;101260.81;5049775;28;20025;-21
2021/04/10 06:27:55;;;;;;;26.98;11.63;;;;;;;6.76;52.95;101274.06;5049888;28;20036;-22
2021/04/10 06:30:21;;;;;;;19.42;12.45;;;;;;;6.60;53.99;101268.72;5049286;28;20036;-22
2021/04/10 06:32:47;;;;;;;18.65;13.13;;;;;;;6.53;53.93;101251.81;5049580;28;20033;-21
2021/04/10 06:35:12;;;;;;;28.73;18.00;;;;;;;7.19;53.11;101253.50;5049560;28;20558;-23
2021/04/10 06:37:38;;;;;;;32.92;18.13;;;;;;;7.34;52.30;101269.56;5049771;28;20111;-22
2021/04/10 06:40:05;;;;;;;18.73;12.18;;;;;;;7.22;51.21;101265.59;5049436;28;20377;-22
2021/04/10 06:42:31;;;;;;;18.45;12.38;;;;;;;6.80;53.25;101240.06;5049035;28;20040;-22
2021/04/10 06:44:58;;;;;;;18.05;11.38;;;;;;;7.03;52.64;101258.81;5031613;28;20511;-22
2021/04/10 06:47:26;;;;;;;17.88;11.93;;;;;;;7.09;51.77;101250.19;5049448;28;20033;-21
2021/04/10 06:49:52;;;;;;;46.75;24.30;;;;;;;7.84;49.90;101267.63;5049161;28;20103;-22
2021/04/10 06:52:17;;;;;;;20.02;12.43;;;;;;;7.77;47.41;101256.03;5048779;28;20033;-21
2021/04/10 06:54:46;;;;;;;18.75;11.50;;;;;;;7.81;47.53;101258.16;5031678;28;20064;-22
2021/04/10 06:57:16;;;;;;;18.42;10.65;;;;;;;7.87;49.05;101231.91;5049042;28;20036;-21
2021/04/10 07:00:03;;;;;;;15.75;8.75;;;;;;;8.28;45.56;101261.78;5030961;28;20036;-23
2021/04/10 07:02:30;;;;;;;26.95;13.40;;;;;;;8.40;46.23;101246.28;5048841;28;20021;-23
2021/04/10 07:04:56;;;;;;;19.65;9.55;;;;;;;9.04;42.99;101249.47;5031266;28;20033;-23
2021/04/10 07:07:23;;;;;;;15.00;8.55;;;;;;;8.79;42.31;101243.53;5049027;28;20056;-22
2021/04/10 07:09:48;;;;;;;14.48;9.45;;;;;;;8.98;42.01;101241.41;5049019;28;20040;-22
2021/04/10 07:12:14;;;;;;;16.02;9.60;;;;;;;9.10;43.33;101258.59;5048607;28;20029;-22
2021/04/10 07:14:39;;;;;;;14.15;8.82;;;;;;;9.05;41.05;101229.88;5049445;28;20025;-22
2021/04/10 07:17:05;;;;;;;13.68;7.85;;;;;;;8.92;40.25;101250.09;5048972;28;20033;-22
2021/04/10 07:19:30;;;;;;;14.18;8.68;;;;;;;9.13;40.46;101236.91;5048571;28;20043;-22
2021/04/10 07:22:09;;;;;;;12.30;7.20;;;;;;;9.35;40.16;101235.22;5048815;28;20024;-22
2021/04/10 07:24:48;;;;;;;12.32;7.90;;;;;;;9.20;40.01;101242.38;5048592;28;20035;-23
2021/04/10 07:27:18;;;;;;;13.55;7.78;;;;;;;9.57;38.52;101212.19;5048679;28;20056;-23
2021/04/10 07:29:45;;;;;;;13.63;9.20;;;;;;;10.43;38.47;101239.09;5048564;28;20132;-22
2021/04/10 07:32:32;;;;;;;21.63;12.48;;;;;;;10.29;38.90;101239.94;5048309;28;20025;-23
2021/04/10 07:35:05;;;;;;;13.15;7.97;;;;;;;10.26;37.50;101211.00;5048621;28;20044;-23
2021/04/10 07:37:37;;;;;;;13.55;8.55;;;;;;;10.63;38.08;101252.63;5048401;28;20124;-23
2021/04/10 07:40:12;;;;;;;10.88;7.35;;;;;;;10.49;36.45;101250.03;5048438;28;20118;-23
2021/04/10 07:42:41;;;;;;;14.55;8.32;;;;;;;9.99;36.85;101232.00;5048324;28;20033;-23
2021/04/10 07:45:34;;;;;;;12.93;8.50;;;;;;;10.44;37.80;101248.75;5030573;28;20025;-23
2021/04/10 07:48:19;;;;;;;15.02;7.30;;;;;;;10.56;37.26;101241.09;5048101;28;20535;-23
2021/04/10 07:50:45;;;;;;;13.77;8.23;;;;;;;10.90;35.68;101239.53;5046625;28;20053;-20
2021/04/10 07:53:26;;;;;;;12.15;8.23;;;;;;;10.67;36.06;101239.75;5048364;28;20138;-23
2021/04/10 07:55:53;;;;;;;26.08;14.63;;;;;;;11.08;36.39;101239.06;5047796;28;20028;-23
2021/04/10 07:58:22;;;;;;;12.55;8.35;;;;;;;10.74;37.51;101229.94;5047682;28;20389;-23
2021/04/10 08:00:47;;;;;;;9.75;6.10;;;;;;;10.63;37.96;101238.47;5047936;28;20029;-23
2021/04/10 08:03:25;;;;;;;9.45;5.43;;;;;;;10.18;36.83;101235.09;5029918;28;20040;-23
2021/04/10 08:05:51;;;;;;;9.80;6.00;;;;;;;10.34;38.22;101223.38;5047900;28;20079;-23
2021/04/10 08:08:24;;;;;;;9.18;5.68;;;;;;;9.97;38.35;101222.53;5029686;28;20040;-23
2021/04/10 08:11:02;;;;;;;11.68;5.93;;;;;;;10.78;36.05;101233.88;5048120;28;20523;-23
2021/04/10 08:13:27;;;;;;;10.63;6.75;;;;;;;10.81;38.14;101214.84;5046778;28;20891;-23
2021/04/10 08:16:11;;;;;;;10.70;6.47;;;;;;;11.44;36.83;101232.75;5047618;28;20068;-23
2021/04/10 08:18:45;;;;;;;10.88;5.65;;;;;;;11.42;34.05;101224.94;5047371;28;20033;-23
2021/04/10 08:21:14;;;;;;;9.63;5.28;;;;;;;11.67;33.90;101224.47;5047650;28;20051;-21
2021/04/10 08:23:40;;;;;;;8.55;5.00;;;;;;;11.68;35.04;101225.28;5047512;28;20036;-22
2021/04/10 08:26:06;;;;;;;8.25;4.82;;;;;;;11.43;34.15;101223.91;5047399;28;20029;-22
2021/04/10 08:28:31;;;;;;;9.20;4.57;;;;;;;11.58;32.56;101204.25;5047587;28;20032;-23
2021/04/10 08:31:00;;;;;;;9.18;5.43;;;;;;;11.97;32.71;101221.53;5047194;28;20086;-23
2021/04/10 08:33:29;;;;;;;8.30;5.15;;;;;;;12.23;36.02;101218.94;5047514;28;20033;-22
2021/04/10 08:35:55;;;;;;;9.85;4.85;;;;;;;12.62;33.38;101216.56;5029724;28;20597;-22
2021/04/10 08:38:22;;;;;;;9.02;5.25;;;;;;;12.21;33.83;101204.13;5029464;28;20021;-22
2021/04/10 08:40:47;;;;;;;8.48;5.03;;;;;;;12.21;33.09;101217.50;5029622;28;20108;-22
2021/04/10 08:43:13;;;;;;;9.23;5.00;;;;;;;12.02;33.36;101197.72;5013282;28;20143;-22
2021/04/10 08:45:39;;;;;;;8.55;4.82;;;;;;;12.48;34.53;101221.06;5012990;28;20025;-23
2021/04/10 08:48:06;;;;;;;9.35;5.15;;;;;;;12.82;35.21;101212.06;5012957;28;20029;-23
2021/04/10 08:50:33;;;;;;;10.50;6.40;;;;;;;13.22;35.48;101206.69;5047114;28;20057;-23
2021/04/10 08:52:59;;;;;;;8.02;5.30;;;;;;;12.82;32.56;101184.47;5046920;28;20037;-23
2021/04/10 08:55:25;;;;;;;8.18;4.93;;;;;;;13.30;32.24;101205.69;5046971;28;20477;-22
2021/04/10 08:57:50;;;;;;;10.52;7.07;;;;;;;13.08;32.21;101197.03;5029306;28;20060;-23
2021/04/10 09:00:23;;;;;;;10.90;5.65;;;;;;;12.79;34.53;101185.72;5046947;28;20033;-23
2021/04/10 09:02:50;;;;;;;10.10;4.72;;;;;;;12.41;34.43;101186.28;5047488;28;20025;-22
2021/04/10 09:05:16;;;;;;;10.98;5.60;;;;;;;12.76;33.45;101196.81;5047225;28;20028;-23
2021/04/10 09:07:47;;;;;;;7.63;4.25;;;;;;;13.17;31.71;101193.06;5046915;28;20884;-23
2021/04/10 09:10:21;;;;;;;9.05;4.82;;;;;;;13.41;32.81;101198.84;5046681;28;20067;-23
2021/04/10 09:12:47;;;;;;;13.30;7.25;;;;;;;13.66;31.96;101189.06;5047070;28;20131;-23
2021/04/10 09:15:13;;;;;;;12.18;6.05;;;;;;;13.54;30.53;101193.44;5047013;28;20116;-23
2021/04/10 09:18:02;;;;;;;8.25;4.50;;;;;;;13.92;30.45;101184.66;5047121;28;20104;-23
2021/04/10 09:20:54;;;;;;;9.15;5.85;;;;;;;14.00;30.97;101181.72;5046658;28;20029;-23
2021/04/10 09:23:30;;;;;;;155.77;29.38;;;;;;;14.27;30.74;101165.47;5044855;28;20063;-23
2021/04/10 09:26:08;;;;;;;9.15;5.57;;;;;;;14.10;32.05;101167.00;5051078;28;20033;-22
2021/04/10 09:28:34;;;;;;;10.23;5.40;;;;;;;14.25;34.25;101168.38;5051036;28;20703;-22
2021/04/10 09:31:00;;;;;;;9.20;5.18;;;;;;;14.58;31.73;101166.53;5033239;28;20548;-23
2021/04/10 09:33:28;;;;;;;13.02;5.38;;;;;;;14.17;32.29;101167.81;5033186;28;20865;-23
2021/04/10 09:35:54;;;;;;;78.60;22.48;;;;;;;14.66;32.82;101169.75;5032788;28;20037;-22
2021/04/10 09:38:41;;;;;;;17.67;7.47;;;;;;;14.98;31.85;101160.81;5050825;28;20183;-23
2021/04/10 09:41:07;;;;;;;18.10;7.30;;;;;;;14.63;34.17;101155.97;5050537;28;20061;-22
2021/04/10 09:43:32;;;;;;;7.65;4.72;;;;;;;14.16;33.53;101142.84;5050427;28;20036;-22
2021/04/10 09:45:58;;;;;;;17.60;8.23;;;;;;;13.82;31.85;101141.38;5050297;28;20025;-22
2021/04/10 09:48:27;;;;;;;8.65;5.18;;;;;;;13.99;33.32;101147.88;5050042;28;20025;-22
2021/04/10 09:50:52;;;;;;;16.10;8.18;;;;;;;14.57;30.68;101144.22;5050090;28;20048;-22
2021/04/10 09:53:19;;;;;;;8.88;5.43;;;;;;;14.84;31.84;101131.41;5050185;28;20458;-23
2021/04/10 09:55:45;;;;;;;9.88;5.00;;;;;;;14.42;30.54;101117.66;5032764;28;20044;-23
2021/04/10 09:58:13;;;;;;;7.57;4.70;;;;;;;14.75;32.60;101131.88;5050047;28;20064;-22
2021/04/10 10:00:45;;;;;;;8.43;4.57;;;;;;;14.83;31.29;101110.13;5050157;28;20036;-22
2021/04/10 10:03:12;;;;;;;7.85;4.63;;;;;;;14.48;29.20;101107.91;5050461;28;20024;-22
2021/04/10 10:05:39;;;;;;;10.45;4.47;;;;;;;14.83;27.84;101110.97;5050506;28;20037;-22
2021/04/10 10:08:05;;;;;;;8.02;4.40;;;;;;;14.89;30.20;101124.53;5050212;28;20131;-23
2021/04/10 10:10:35;;;;;;;10.43;6.53;;;;;;;15.31;28.68;101117.47;5050039;28;20033;-22
2021/04/10 10:13:05;;;;;;;8.45;4.82;;;;;;;15.96;27.74;101119.56;5049876;28;20035;-22
2021/04/10 10:15:30;;;;;;;9.05;4.20;;;;;;;16.00;27.89;101115.38;5049897;28;20066;-22
2021/04/10 10:17:56;;;;;;;5.15;3.33;;;;;;;15.67;26.95;101105.03;5032210;28;20119;-22
2021/04/10 10:20:21;;;;;;;9.70;5.00;;;;;;;16.13;28.77;101106.28;5049671;28;20045;-21
2021/04/10 10:22:47;;;;;;;12.32;7.28;;;;;;;15.45;28.27;101107.41;5050027;28;20025;-22
2021/04/10 10:25:13;;;;;;;6.60;4.45;;;;;;;16.45;24.91;101089.84;5032162;28;20041;-22
2021/04/10 10:27:46;;;;;;;11.57;4.40;;;;;;;17.01;24.41;101098.41;5049813;28;20052;-22
2021/04/10 10:30:16;;;;;;;6.88;3.97;;;;;;;16.65;27.50;101089.47;5049472;28;20036;-23
2021/04/10 10:32:43;;;;;;;8.30;4.00;;;;;;;16.14;27.55;101097.19;5031608;28;20033;-22
2021/04/10 10:35:10;;;;;;;6.50;3.10;;;;;;;15.77;27.09;101091.06;5048741;28;20405;-22
2021/04/10 10:37:35;;;;;;;5.07;2.75;;;;;;;15.66;27.69;101088.09;5049477;28;20102;-22
2021/04/10 10:40:01;;;;;;;8.45;4.05;;;;;;;15.20;27.62;101084.13;5049827;28;20518;-22
2021/04/10 10:42:26;;;;;;;7.88;3.35;;;;;;;15.18;27.32;101078.16;5049391;28;20534;-22
2021/04/10 10:44:52;;;;;;;6.22;3.17;;;;;;;15.18;27.75;101053.97;5049419;28;20021;-21
2021/04/10 10:47:18;;;;;;;6.10;3.60;;;;;;;16.18;27.27;101051.75;5049458;28;20037;-21
2021/04/10 10:49:49;;;;;;;9.43;3.45;;;;;;;17.06;24.13;101064.31;5049380;28;20063;-22
2021/04/10 10:52:15;;;;;;;6.95;2.90;;;;;;;17.04;23.88;101055.66;5048755;28;20040;-22
2021/04/10 10:54:42;;;;;;;9.45;4.65;;;;;;;17.62;23.35;101058.38;5049174;28;20040;-22
2021/04/10 10:57:10;;;;;;;66.68;44.40;;;;;;;17.86;24.25;101045.66;5049068;28;20032;-21
2021/04/10 10:59:36;;;;;;;;;;;;;;;18.19;24.89;101039.44;5049682;28;20021;-22
2021/04/10 11:02:01;;;;;;;5.45;3.20;;;;;;;18.32;25.17;101040.97;5031298;28;19912;-22
2021/04/10 11:04:29;;;;;;;5.65;2.97;;;;;;;17.97;24.12;101025.03;5048811;28;20083;-21
2021/04/10 11:06:56;;;;;;;7.38;2.75;;;;;;;18.33;24.46;101029.13;5031413;28;20044;-21
2021/04/10 11:09:24;;;;;;;5.68;2.63;;;;;;;18.45;24.98;101029.84;5014824;28;20036;-21
2021/04/10 11:11:51;;;;;;;5.50;2.85;;;;;;;17.75;26.42;101008.72;5031201;28;20409;-22
2021/04/10 11:14:20;;;;;;;4.88;2.70;;;;;;;18.49;25.90;101024.78;5030885;28;20059;-23
2021/04/10 11:16:47;;;;;;;6.70;3.10;;;;;;;18.50;23.20;101017.47;5031089;28;20455;-22
2021/04/10 11:19:26;;;;;;;6.20;3.47;;;;;;;19.07;23.38;101011.78;5048744;28;20028;-22
2021/04/10 11:21:52;;;;;;;6.57;3.50;;;;;;;18.42;23.36;101010.63;5048695;28;20083;-22
2021/04/10 11:24:18;;;;;;;5.45;3.10;;;;;;;18.59;23.03;101010.56;5048350;28;20060;-22
2021/04/10 11:26:53;;;;;;;5.70;2.88;;;;;;;18.84;22.28;101012.84;5048577;28;20481;-22
2021/04/10 11:29:26;;;;;;;4.80;2.63;;;;;;;18.84;23.26;101005.56;5048642;28;20028;-21